sensor_id;sensor_type;location;lat;lon;timestamp;P1;durP1;ratioP1;P2;durP2;ratioP2
52412;SDS011;38339;53.234;6.578;2022-11-20T00:01:49;20.02;;;16.10;;
52412;SDS011;38339;53.234;6.578;2022-11-20T00:04:15;20.77;;;15.77;;
52412;SDS011;38339;53.234;6.578;2022-11-20T00:06:41;23.60;;;16.05;;
52412;SDS011;38339;53.234;6.578;2022-11-20T00:09:08;20.63;;;14.90;;
52412;SDS011;38339;53.234;6.578;2022-11-20T00:11:35;21.42;;;15.55;;
52412;SDS011;38339;53.234;6.578;2022-11-20T00:14:01;45.70;;;28.42;;
52412;SDS011;38339;53.234;6.578;2022-11-20T00:16:27;28.38;;;18.08;;
52412;SDS011;38339;53.234;6.578;2022-11-20T00:18:55;21.13;;;15.00;;
52412;SDS011;38339;53.234;6.578;2022-11-20T00:21:22;24.30;;;16.02;;
52412;SDS011;38339;53.234;6.578;2022-11-20T00:23:50;20.83;;;15.00;;
52412;SDS011;38339;53.234;6.578;2022-11-20T00:26:19;21.15;;;15.32;;
52412;SDS011;38339;53.234;6.578;2022-11-20T00:28:49;22.67;;;15.88;;
52412;SDS011;38339;53.234;6.578;2022-11-20T00:31:16;22.98;;;15.43;;
52412;SDS011;38339;53.234;6.578;2022-11-20T00:33:43;21.50;;;15.07;;
52412;SDS011;38339;53.234;6.578;2022-11-20T00:36:28;21.38;;;15.15;;
52412;SDS011;38339;53.234;6.578;2022-11-20T00:38:57;21.13;;;15.18;;
52412;SDS011;38339;53.234;6.578;2022-11-20T00:41:24;23.30;;;15.55;;
52412;SDS011;38339;53.234;6.578;2022-11-20T00:43:51;20.55;;;14.00;;
52412;SDS011;38339;53.234;6.578;2022-11-20T00:46:18;20.85;;;13.88;;
52412;SDS011;38339;53.234;6.578;2022-11-20T00:48:46;22.75;;;15.20;;
52412;SDS011;38339;53.234;6.578;2022-11-20T00:51:13;20.63;;;13.98;;
52412;SDS011;38339;53.234;6.578;2022-11-20T00:53:40;20.80;;;14.55;;
52412;SDS011;38339;53.234;6.578;2022-11-20T00:56:07;19.38;;;13.65;;
52412;SDS011;38339;53.234;6.578;2022-11-20T00:58:39;19.17;;;14.07;;
52412;SDS011;38339;53.234;6.578;2022-11-20T01:01:10;18.00;;;13.80;;
52412;SDS011;38339;53.234;6.578;2022-11-20T01:03:38;20.23;;;14.05;;
52412;SDS011;38339;53.234;6.578;2022-11-20T01:06:07;22.95;;;14.75;;
52412;SDS011;38339;53.234;6.578;2022-11-20T01:08:36;19.38;;;14.73;;
52412;SDS011;38339;53.234;6.578;2022-11-20T01:11:03;23.42;;;14.70;;
52412;SDS011;38339;53.234;6.578;2022-11-20T01:13:33;20.75;;;15.05;;
52412;SDS011;38339;53.234;6.578;2022-11-20T01:16:06;20.02;;;14.52;;
52412;SDS011;38339;53.234;6.578;2022-11-20T01:18:32;20.33;;;13.95;;
52412;SDS011;38339;53.234;6.578;2022-11-20T01:21:03;23.60;;;14.40;;
52412;SDS011;38339;53.234;6.578;2022-11-20T01:23:34;21.00;;;14.82;;
52412;SDS011;38339;53.234;6.578;2022-11-20T01:26:07;20.13;;;14.88;;
52412;SDS011;38339;53.234;6.578;2022-11-20T01:28:35;21.77;;;15.25;;
52412;SDS011;38339;53.234;6.578;2022-11-20T01:31:01;22.42;;;15.32;;
52412;SDS011;38339;53.234;6.578;2022-11-20T01:33:27;22.77;;;15.38;;
52412;SDS011;38339;53.234;6.578;2022-11-20T01:35:53;19.95;;;15.00;;
52412;SDS011;38339;53.234;6.578;2022-11-20T01:38:19;19.65;;;15.35;;
52412;SDS011;38339;53.234;6.578;2022-11-20T01:40:54;19.52;;;14.45;;
52412;SDS011;38339;53.234;6.578;2022-11-20T01:43:20;22.08;;;15.23;;
52412;SDS011;38339;53.234;6.578;2022-11-20T01:45:51;19.50;;;15.57;;
52412;SDS011;38339;53.234;6.578;2022-11-20T01:48:24;23.58;;;15.75;;
52412;SDS011;38339;53.234;6.578;2022-11-20T01:54:12;24.95;;;16.70;;
52412;SDS011;38339;53.234;6.578;2022-11-20T01:56:41;23.70;;;17.55;;
52412;SDS011;38339;53.234;6.578;2022-11-20T01:59:09;22.85;;;16.80;;
52412;SDS011;38339;53.234;6.578;2022-11-20T02:01:37;25.27;;;17.10;;
52412;SDS011;38339;53.234;6.578;2022-11-20T02:04:04;23.38;;;17.80;;
52412;SDS011;38339;53.234;6.578;2022-11-20T02:06:33;22.80;;;16.55;;
52412;SDS011;38339;53.234;6.578;2022-11-20T02:09:03;24.40;;;18.13;;
52412;SDS011;38339;53.234;6.578;2022-11-20T02:11:30;23.13;;;17.38;;
52412;SDS011;38339;53.234;6.578;2022-11-20T02:13:56;24.48;;;17.67;;
52412;SDS011;38339;53.234;6.578;2022-11-20T02:16:23;23.60;;;17.50;;
52412;SDS011;38339;53.234;6.578;2022-11-20T02:18:53;24.33;;;17.67;;
52412;SDS011;38339;53.234;6.578;2022-11-20T02:21:37;23.73;;;17.45;;
52412;SDS011;38339;53.234;6.578;2022-11-20T02:24:14;23.75;;;17.30;;
52412;SDS011;38339;53.234;6.578;2022-11-20T02:26:51;24.70;;;17.40;;
52412;SDS011;38339;53.234;6.578;2022-11-20T02:29:27;24.48;;;17.15;;
52412;SDS011;38339;53.234;6.578;2022-11-20T02:31:58;22.90;;;16.15;;
52412;SDS011;38339;53.234;6.578;2022-11-20T02:34:27;23.35;;;16.48;;
52412;SDS011;38339;53.234;6.578;2022-11-20T02:36:53;25.70;;;16.23;;
52412;SDS011;38339;53.234;6.578;2022-11-20T02:39:20;23.55;;;16.70;;
52412;SDS011;38339;53.234;6.578;2022-11-20T02:41:49;22.25;;;16.23;;
52412;SDS011;38339;53.234;6.578;2022-11-20T02:44:18;22.27;;;16.42;;
52412;SDS011;38339;53.234;6.578;2022-11-20T02:46:44;22.90;;;15.50;;
52412;SDS011;38339;53.234;6.578;2022-11-20T02:49:10;19.65;;;14.35;;
52412;SDS011;38339;53.234;6.578;2022-11-20T02:51:36;18.75;;;14.75;;
52412;SDS011;38339;53.234;6.578;2022-11-20T02:54:02;19.80;;;15.35;;
52412;SDS011;38339;53.234;6.578;2022-11-20T02:56:27;22.25;;;15.32;;
52412;SDS011;38339;53.234;6.578;2022-11-20T02:58:53;21.27;;;15.20;;
52412;SDS011;38339;53.234;6.578;2022-11-20T03:01:19;21.08;;;15.07;;
52412;SDS011;38339;53.234;6.578;2022-11-20T03:03:44;22.27;;;15.43;;
52412;SDS011;38339;53.234;6.578;2022-11-20T03:06:10;21.05;;;15.98;;
52412;SDS011;38339;53.234;6.578;2022-11-20T03:08:36;20.95;;;15.32;;
52412;SDS011;38339;53.234;6.578;2022-11-20T03:11:02;19.95;;;14.40;;
52412;SDS011;38339;53.234;6.578;2022-11-20T03:13:32;21.15;;;15.75;;
52412;SDS011;38339;53.234;6.578;2022-11-20T03:16:04;21.90;;;15.43;;
52412;SDS011;38339;53.234;6.578;2022-11-20T03:18:34;21.35;;;15.20;;
52412;SDS011;38339;53.234;6.578;2022-11-20T03:21:00;21.90;;;15.57;;
52412;SDS011;38339;53.234;6.578;2022-11-20T03:23:28;20.50;;;14.98;;
52412;SDS011;38339;53.234;6.578;2022-11-20T03:25:54;19.80;;;13.93;;
52412;SDS011;38339;53.234;6.578;2022-11-20T03:28:20;21.13;;;14.43;;
52412;SDS011;38339;53.234;6.578;2022-11-20T03:30:45;20.02;;;14.65;;
52412;SDS011;38339;53.234;6.578;2022-11-20T03:33:11;20.20;;;15.20;;
52412;SDS011;38339;53.234;6.578;2022-11-20T03:35:37;23.13;;;15.13;;
52412;SDS011;38339;53.234;6.578;2022-11-20T03:38:02;19.77;;;15.77;;
52412;SDS011;38339;53.234;6.578;2022-11-20T03:40:28;21.20;;;15.07;;
52412;SDS011;38339;53.234;6.578;2022-11-20T03:42:53;21.00;;;14.77;;
52412;SDS011;38339;53.234;6.578;2022-11-20T03:45:19;21.15;;;14.63;;
52412;SDS011;38339;53.234;6.578;2022-11-20T03:47:45;19.60;;;15.23;;
52412;SDS011;38339;53.234;6.578;2022-11-20T03:50:12;18.70;;;14.73;;
52412;SDS011;38339;53.234;6.578;2022-11-20T03:52:39;19.08;;;14.25;;
52412;SDS011;38339;53.234;6.578;2022-11-20T03:55:05;19.60;;;14.48;;
52412;SDS011;38339;53.234;6.578;2022-11-20T03:57:31;19.83;;;14.23;;
52412;SDS011;38339;53.234;6.578;2022-11-20T03:59:57;19.33;;;14.30;;
52412;SDS011;38339;53.234;6.578;2022-11-20T04:02:23;19.10;;;14.57;;
52412;SDS011;38339;53.234;6.578;2022-11-20T04:04:49;18.70;;;13.55;;
52412;SDS011;38339;53.234;6.578;2022-11-20T04:07:14;18.60;;;14.40;;
52412;SDS011;38339;53.234;6.578;2022-11-20T04:09:40;20.98;;;14.30;;
52412;SDS011;38339;53.234;6.578;2022-11-20T04:12:06;18.27;;;14.10;;
52412;SDS011;38339;53.234;6.578;2022-11-20T04:14:31;18.90;;;13.68;;
52412;SDS011;38339;53.234;6.578;2022-11-20T04:16:57;21.73;;;14.20;;
52412;SDS011;38339;53.234;6.578;2022-11-20T04:19:23;18.73;;;13.88;;
52412;SDS011;38339;53.234;6.578;2022-11-20T04:21:48;16.85;;;13.40;;
52412;SDS011;38339;53.234;6.578;2022-11-20T04:24:14;16.90;;;13.60;;
52412;SDS011;38339;53.234;6.578;2022-11-20T04:26:40;18.92;;;13.48;;
52412;SDS011;38339;53.234;6.578;2022-11-20T04:29:05;16.63;;;12.90;;
52412;SDS011;38339;53.234;6.578;2022-11-20T04:31:32;17.85;;;13.25;;
52412;SDS011;38339;53.234;6.578;2022-11-20T04:34:02;18.23;;;13.30;;
52412;SDS011;38339;53.234;6.578;2022-11-20T04:36:30;18.98;;;14.10;;
52412;SDS011;38339;53.234;6.578;2022-11-20T04:39:01;20.20;;;14.27;;
52412;SDS011;38339;53.234;6.578;2022-11-20T04:41:29;17.17;;;13.15;;
52412;SDS011;38339;53.234;6.578;2022-11-20T04:43:59;19.80;;;13.55;;
52412;SDS011;38339;53.234;6.578;2022-11-20T04:46:28;20.10;;;13.85;;
52412;SDS011;38339;53.234;6.578;2022-11-20T04:48:58;18.77;;;13.20;;
52412;SDS011;38339;53.234;6.578;2022-11-20T04:51:24;18.08;;;14.02;;
52412;SDS011;38339;53.234;6.578;2022-11-20T04:53:50;17.92;;;13.68;;
52412;SDS011;38339;53.234;6.578;2022-11-20T04:56:16;17.88;;;13.70;;
52412;SDS011;38339;53.234;6.578;2022-11-20T04:58:42;18.77;;;13.55;;
52412;SDS011;38339;53.234;6.578;2022-11-20T05:01:12;18.83;;;13.20;;
52412;SDS011;38339;53.234;6.578;2022-11-20T05:03:40;18.42;;;13.98;;
52412;SDS011;38339;53.234;6.578;2022-11-20T05:06:06;18.63;;;13.57;;
52412;SDS011;38339;53.234;6.578;2022-11-20T05:08:33;19.40;;;14.48;;
52412;SDS011;38339;53.234;6.578;2022-11-20T05:11:03;19.27;;;14.05;;
52412;SDS011;38339;53.234;6.578;2022-11-20T05:13:30;19.50;;;14.68;;
52412;SDS011;38339;53.234;6.578;2022-11-20T05:16:00;20.67;;;15.38;;
52412;SDS011;38339;53.234;6.578;2022-11-20T05:18:29;19.50;;;14.18;;
52412;SDS011;38339;53.234;6.578;2022-11-20T05:20:56;20.85;;;13.93;;
52412;SDS011;38339;53.234;6.578;2022-11-20T05:23:22;19.95;;;14.52;;
52412;SDS011;38339;53.234;6.578;2022-11-20T05:25:48;18.17;;;13.77;;
52412;SDS011;38339;53.234;6.578;2022-11-20T05:28:17;18.38;;;13.75;;
52412;SDS011;38339;53.234;6.578;2022-11-20T05:30:43;19.23;;;13.73;;
52412;SDS011;38339;53.234;6.578;2022-11-20T05:33:08;18.33;;;13.13;;
52412;SDS011;38339;53.234;6.578;2022-11-20T05:35:34;17.33;;;13.30;;
52412;SDS011;38339;53.234;6.578;2022-11-20T05:38:00;17.08;;;13.10;;
52412;SDS011;38339;53.234;6.578;2022-11-20T05:40:25;17.35;;;12.85;;
52412;SDS011;38339;53.234;6.578;2022-11-20T05:42:51;15.77;;;12.85;;
52412;SDS011;38339;53.234;6.578;2022-11-20T05:45:16;16.58;;;12.20;;
52412;SDS011;38339;53.234;6.578;2022-11-20T05:47:42;17.73;;;13.50;;
52412;SDS011;38339;53.234;6.578;2022-11-20T05:50:08;17.30;;;12.60;;
52412;SDS011;38339;53.234;6.578;2022-11-20T05:52:34;17.55;;;13.52;;
52412;SDS011;38339;53.234;6.578;2022-11-20T05:54:59;17.45;;;13.13;;
52412;SDS011;38339;53.234;6.578;2022-11-20T05:57:25;17.25;;;12.75;;
52412;SDS011;38339;53.234;6.578;2022-11-20T05:59:50;18.38;;;13.32;;
52412;SDS011;38339;53.234;6.578;2022-11-20T06:02:16;18.73;;;12.85;;
52412;SDS011;38339;53.234;6.578;2022-11-20T06:04:42;17.85;;;13.20;;
52412;SDS011;38339;53.234;6.578;2022-11-20T06:07:08;16.95;;;12.95;;
52412;SDS011;38339;53.234;6.578;2022-11-20T06:09:33;21.83;;;13.70;;
52412;SDS011;38339;53.234;6.578;2022-11-20T06:11:59;18.70;;;14.15;;
52412;SDS011;38339;53.234;6.578;2022-11-20T06:14:25;17.73;;;12.85;;
52412;SDS011;38339;53.234;6.578;2022-11-20T06:16:50;16.85;;;13.63;;
52412;SDS011;38339;53.234;6.578;2022-11-20T06:19:16;17.27;;;13.00;;
52412;SDS011;38339;53.234;6.578;2022-11-20T06:21:42;18.25;;;13.93;;
52412;SDS011;38339;53.234;6.578;2022-11-20T06:24:08;17.02;;;13.50;;
52412;SDS011;38339;53.234;6.578;2022-11-20T06:26:35;16.35;;;12.60;;
52412;SDS011;38339;53.234;6.578;2022-11-20T06:29:01;17.73;;;13.30;;
52412;SDS011;38339;53.234;6.578;2022-11-20T06:31:27;16.27;;;12.68;;
52412;SDS011;38339;53.234;6.578;2022-11-20T06:33:53;16.77;;;12.88;;
52412;SDS011;38339;53.234;6.578;2022-11-20T06:36:20;17.70;;;13.50;;
52412;SDS011;38339;53.234;6.578;2022-11-20T06:38:47;19.63;;;12.75;;
52412;SDS011;38339;53.234;6.578;2022-11-20T06:41:14;16.48;;;12.98;;
52412;SDS011;38339;53.234;6.578;2022-11-20T06:43:42;18.98;;;13.70;;
52412;SDS011;38339;53.234;6.578;2022-11-20T06:46:08;18.05;;;13.23;;
52412;SDS011;38339;53.234;6.578;2022-11-20T06:48:35;19.58;;;14.32;;
52412;SDS011;38339;53.234;6.578;2022-11-20T06:51:05;19.08;;;13.90;;
52412;SDS011;38339;53.234;6.578;2022-11-20T06:53:32;21.77;;;14.20;;
52412;SDS011;38339;53.234;6.578;2022-11-20T06:55:58;17.60;;;13.45;;
52412;SDS011;38339;53.234;6.578;2022-11-20T06:58:28;17.10;;;13.02;;
52412;SDS011;38339;53.234;6.578;2022-11-20T07:00:59;19.98;;;13.70;;
52412;SDS011;38339;53.234;6.578;2022-11-20T07:03:25;15.85;;;12.85;;
52412;SDS011;38339;53.234;6.578;2022-11-20T07:05:51;17.35;;;13.10;;
52412;SDS011;38339;53.234;6.578;2022-11-20T07:08:19;17.75;;;12.82;;
52412;SDS011;38339;53.234;6.578;2022-11-20T07:10:44;18.45;;;13.25;;
52412;SDS011;38339;53.234;6.578;2022-11-20T07:13:10;17.15;;;13.60;;
52412;SDS011;38339;53.234;6.578;2022-11-20T07:15:36;18.40;;;13.88;;
52412;SDS011;38339;53.234;6.578;2022-11-20T07:18:01;17.65;;;13.02;;
52412;SDS011;38339;53.234;6.578;2022-11-20T07:20:27;17.02;;;13.25;;
52412;SDS011;38339;53.234;6.578;2022-11-20T07:22:53;18.20;;;13.38;;
52412;SDS011;38339;53.234;6.578;2022-11-20T07:25:20;16.60;;;12.88;;
52412;SDS011;38339;53.234;6.578;2022-11-20T07:27:46;16.33;;;13.02;;
52412;SDS011;38339;53.234;6.578;2022-11-20T07:30:12;19.27;;;13.98;;
52412;SDS011;38339;53.234;6.578;2022-11-20T07:32:39;17.20;;;13.07;;
52412;SDS011;38339;53.234;6.578;2022-11-20T07:35:05;18.95;;;13.10;;
52412;SDS011;38339;53.234;6.578;2022-11-20T07:37:34;16.60;;;12.82;;
52412;SDS011;38339;53.234;6.578;2022-11-20T07:40:00;18.05;;;12.80;;
52412;SDS011;38339;53.234;6.578;2022-11-20T07:42:26;17.75;;;12.95;;
52412;SDS011;38339;53.234;6.578;2022-11-20T07:44:51;17.52;;;13.23;;
52412;SDS011;38339;53.234;6.578;2022-11-20T07:47:17;19.75;;;13.45;;
52412;SDS011;38339;53.234;6.578;2022-11-20T07:49:43;19.15;;;14.27;;
52412;SDS011;38339;53.234;6.578;2022-11-20T07:52:08;17.42;;;12.27;;
52412;SDS011;38339;53.234;6.578;2022-11-20T07:54:34;17.75;;;13.65;;
52412;SDS011;38339;53.234;6.578;2022-11-20T07:56:59;17.50;;;13.13;;
52412;SDS011;38339;53.234;6.578;2022-11-20T07:59:25;20.38;;;14.05;;
52412;SDS011;38339;53.234;6.578;2022-11-20T08:01:51;16.77;;;13.48;;
52412;SDS011;38339;53.234;6.578;2022-11-20T08:04:17;17.75;;;13.23;;
52412;SDS011;38339;53.234;6.578;2022-11-20T08:06:42;18.60;;;13.40;;
52412;SDS011;38339;53.234;6.578;2022-11-20T08:09:08;18.15;;;13.30;;
52412;SDS011;38339;53.234;6.578;2022-11-20T08:11:34;16.75;;;13.23;;
52412;SDS011;38339;53.234;6.578;2022-11-20T08:14:18;18.55;;;12.90;;
52412;SDS011;38339;53.234;6.578;2022-11-20T08:16:45;15.90;;;12.55;;
52412;SDS011;38339;53.234;6.578;2022-11-20T08:19:12;17.42;;;13.35;;
52412;SDS011;38339;53.234;6.578;2022-11-20T08:21:39;17.55;;;12.70;;
52412;SDS011;38339;53.234;6.578;2022-11-20T08:24:05;17.83;;;13.65;;
52412;SDS011;38339;53.234;6.578;2022-11-20T08:26:31;16.52;;;12.82;;
52412;SDS011;38339;53.234;6.578;2022-11-20T08:28:58;17.67;;;13.20;;
52412;SDS011;38339;53.234;6.578;2022-11-20T08:31:24;21.20;;;13.55;;
52412;SDS011;38339;53.234;6.578;2022-11-20T08:33:51;18.70;;;13.23;;
52412;SDS011;38339;53.234;6.578;2022-11-20T08:36:18;17.70;;;12.85;;
52412;SDS011;38339;53.234;6.578;2022-11-20T08:38:55;17.75;;;12.80;;
52412;SDS011;38339;53.234;6.578;2022-11-20T08:43:51;18.98;;;13.45;;
52412;SDS011;38339;53.234;6.578;2022-11-20T08:46:31;20.08;;;13.23;;
52412;SDS011;38339;53.234;6.578;2022-11-20T08:48:58;17.52;;;13.32;;
52412;SDS011;38339;53.234;6.578;2022-11-20T08:51:24;17.60;;;13.23;;
52412;SDS011;38339;53.234;6.578;2022-11-20T08:53:50;15.27;;;12.02;;
52412;SDS011;38339;53.234;6.578;2022-11-20T08:56:16;17.20;;;13.23;;
52412;SDS011;38339;53.234;6.578;2022-11-20T08:58:42;18.48;;;13.85;;
52412;SDS011;38339;53.234;6.578;2022-11-20T09:01:08;19.15;;;13.82;;
52412;SDS011;38339;53.234;6.578;2022-11-20T09:03:34;17.88;;;13.50;;
52412;SDS011;38339;53.234;6.578;2022-11-20T09:06:01;17.73;;;12.45;;
52412;SDS011;38339;53.234;6.578;2022-11-20T09:08:28;17.27;;;13.00;;
52412;SDS011;38339;53.234;6.578;2022-11-20T09:10:54;18.67;;;13.43;;
52412;SDS011;38339;53.234;6.578;2022-11-20T09:13:21;17.17;;;13.35;;
52412;SDS011;38339;53.234;6.578;2022-11-20T09:15:54;18.05;;;12.55;;
52412;SDS011;38339;53.234;6.578;2022-11-20T09:18:22;17.90;;;12.40;;
52412;SDS011;38339;53.234;6.578;2022-11-20T09:20:49;16.23;;;12.95;;
52412;SDS011;38339;53.234;6.578;2022-11-20T09:23:14;16.95;;;12.98;;
52412;SDS011;38339;53.234;6.578;2022-11-20T09:25:41;16.98;;;13.02;;
52412;SDS011;38339;53.234;6.578;2022-11-20T09:28:07;17.55;;;12.82;;
52412;SDS011;38339;53.234;6.578;2022-11-20T09:30:32;18.50;;;13.40;;
52412;SDS011;38339;53.234;6.578;2022-11-20T09:32:58;16.88;;;12.60;;
52412;SDS011;38339;53.234;6.578;2022-11-20T09:35:24;16.77;;;13.15;;
52412;SDS011;38339;53.234;6.578;2022-11-20T09:37:50;17.42;;;13.38;;
52412;SDS011;38339;53.234;6.578;2022-11-20T09:46:05;17.20;;;13.40;;
52412;SDS011;38339;53.234;6.578;2022-11-20T09:54:46;18.10;;;13.20;;
52412;SDS011;38339;53.234;6.578;2022-11-20T09:57:13;18.98;;;13.88;;
52412;SDS011;38339;53.234;6.578;2022-11-20T09:59:45;17.77;;;12.77;;
52412;SDS011;38339;53.234;6.578;2022-11-20T10:04:51;18.98;;;13.88;;
52412;SDS011;38339;53.234;6.578;2022-11-20T10:07:30;18.20;;;13.57;;
52412;SDS011;38339;53.234;6.578;2022-11-20T10:13:01;16.90;;;12.68;;
52412;SDS011;38339;53.234;6.578;2022-11-20T10:18:41;23.65;;;15.18;;
52412;SDS011;38339;53.234;6.578;2022-11-20T10:27:06;16.27;;;12.63;;
52412;SDS011;38339;53.234;6.578;2022-11-20T10:30:01;16.50;;;12.13;;
52412;SDS011;38339;53.234;6.578;2022-11-20T10:32:40;16.02;;;11.73;;
52412;SDS011;38339;53.234;6.578;2022-11-20T10:37:44;18.42;;;13.50;;
52412;SDS011;38339;53.234;6.578;2022-11-20T10:40:20;17.42;;;13.88;;
52412;SDS011;38339;53.234;6.578;2022-11-20T10:48:26;16.50;;;11.73;;
52412;SDS011;38339;53.234;6.578;2022-11-20T10:50:59;15.57;;;12.32;;
52412;SDS011;38339;53.234;6.578;2022-11-20T10:56:16;17.63;;;12.52;;
52412;SDS011;38339;53.234;6.578;2022-11-20T11:02:16;14.23;;;10.95;;
52412;SDS011;38339;53.234;6.578;2022-11-20T11:04:50;12.73;;;11.05;;
52412;SDS011;38339;53.234;6.578;2022-11-20T11:07:23;14.45;;;11.25;;
52412;SDS011;38339;53.234;6.578;2022-11-20T11:09:51;15.13;;;11.85;;
52412;SDS011;38339;53.234;6.578;2022-11-20T11:12:19;13.95;;;11.00;;
52412;SDS011;38339;53.234;6.578;2022-11-20T11:14:53;16.48;;;11.85;;
52412;SDS011;38339;53.234;6.578;2022-11-20T11:17:25;20.17;;;14.70;;
52412;SDS011;38339;53.234;6.578;2022-11-20T11:20:06;17.33;;;12.53;;
52412;SDS011;38339;53.234;6.578;2022-11-20T11:22:44;14.13;;;11.32;;
52412;SDS011;38339;53.234;6.578;2022-11-20T11:30:17;15.57;;;11.45;;
52412;SDS011;38339;53.234;6.578;2022-11-20T11:32:44;15.30;;;11.45;;
52412;SDS011;38339;53.234;6.578;2022-11-20T11:35:22;14.52;;;11.38;;
52412;SDS011;38339;53.234;6.578;2022-11-20T11:37:53;15.18;;;11.15;;
52412;SDS011;38339;53.234;6.578;2022-11-20T11:40:27;17.48;;;12.30;;
52412;SDS011;38339;53.234;6.578;2022-11-20T11:43:00;18.05;;;11.52;;
52412;SDS011;38339;53.234;6.578;2022-11-20T11:45:29;14.30;;;11.30;;
52412;SDS011;38339;53.234;6.578;2022-11-20T11:47:56;13.90;;;10.95;;
52412;SDS011;38339;53.234;6.578;2022-11-20T11:50:25;15.70;;;11.60;;
52412;SDS011;38339;53.234;6.578;2022-11-20T11:52:58;13.95;;;11.07;;
52412;SDS011;38339;53.234;6.578;2022-11-20T11:55:33;15.63;;;11.35;;
52412;SDS011;38339;53.234;6.578;2022-11-20T11:58:11;19.33;;;11.00;;
52412;SDS011;38339;53.234;6.578;2022-11-20T12:00:41;15.43;;;11.63;;
52412;SDS011;38339;53.234;6.578;2022-11-20T12:03:19;14.10;;;10.60;;
52412;SDS011;38339;53.234;6.578;2022-11-20T12:08:38;15.43;;;10.73;;
52412;SDS011;38339;53.234;6.578;2022-11-20T12:11:33;12.70;;;9.80;;
52412;SDS011;38339;53.234;6.578;2022-11-20T12:14:17;12.73;;;9.85;;
52412;SDS011;38339;53.234;6.578;2022-11-20T12:17:04;13.10;;;10.23;;
52412;SDS011;38339;53.234;6.578;2022-11-20T12:19:31;16.42;;;9.70;;
52412;SDS011;38339;53.234;6.578;2022-11-20T12:22:03;11.75;;;9.93;;
52412;SDS011;38339;53.234;6.578;2022-11-20T12:30:36;12.18;;;8.55;;
52412;SDS011;38339;53.234;6.578;2022-11-20T12:36:44;15.43;;;9.90;;
52412;SDS011;38339;53.234;6.578;2022-11-20T12:39:31;13.73;;;8.95;;
52412;SDS011;38339;53.234;6.578;2022-11-20T12:51:37;10.13;;;7.35;;
52412;SDS011;38339;53.234;6.578;2022-11-20T12:56:21;10.60;;;8.50;;
52412;SDS011;38339;53.234;6.578;2022-11-20T13:01:24;9.68;;;7.55;;
52412;SDS011;38339;53.234;6.578;2022-11-20T13:07:07;10.57;;;8.38;;
52412;SDS011;38339;53.234;6.578;2022-11-20T13:09:37;12.07;;;8.93;;
52412;SDS011;38339;53.234;6.578;2022-11-20T13:17:31;9.60;;;7.18;;
52412;SDS011;38339;53.234;6.578;2022-11-20T13:20:05;9.63;;;7.50;;
52412;SDS011;38339;53.234;6.578;2022-11-20T13:22:44;10.20;;;8.20;;
52412;SDS011;38339;53.234;6.578;2022-11-20T13:25:31;9.95;;;7.35;;
52412;SDS011;38339;53.234;6.578;2022-11-20T13:27:59;10.10;;;7.75;;
52412;SDS011;38339;53.234;6.578;2022-11-20T13:30:28;9.38;;;7.80;;
52412;SDS011;38339;53.234;6.578;2022-11-20T13:32:56;12.63;;;8.68;;
52412;SDS011;38339;53.234;6.578;2022-11-20T13:35:37;10.27;;;8.32;;
52412;SDS011;38339;53.234;6.578;2022-11-20T13:38:13;9.40;;;8.05;;
52412;SDS011;38339;53.234;6.578;2022-11-20T13:40:53;10.35;;;7.90;;
52412;SDS011;38339;53.234;6.578;2022-11-20T13:43:21;9.35;;;8.23;;
52412;SDS011;38339;53.234;6.578;2022-11-20T13:46:05;11.23;;;8.13;;
52412;SDS011;38339;53.234;6.578;2022-11-20T13:48:45;11.88;;;9.32;;
52412;SDS011;38339;53.234;6.578;2022-11-20T14:00:03;11.48;;;8.48;;
52412;SDS011;38339;53.234;6.578;2022-11-20T14:02:44;15.75;;;8.82;;
52412;SDS011;38339;53.234;6.578;2022-11-20T14:05:51;12.05;;;8.70;;
52412;SDS011;38339;53.234;6.578;2022-11-20T14:08:39;9.63;;;8.13;;
52412;SDS011;38339;53.234;6.578;2022-11-20T14:13:55;9.90;;;8.38;;
52412;SDS011;38339;53.234;6.578;2022-11-20T14:16:23;11.38;;;8.43;;
52412;SDS011;38339;53.234;6.578;2022-11-20T14:18:50;10.85;;;8.50;;
52412;SDS011;38339;53.234;6.578;2022-11-20T14:21:28;12.40;;;7.93;;
52412;SDS011;38339;53.234;6.578;2022-11-20T14:24:09;12.05;;;7.82;;
52412;SDS011;38339;53.234;6.578;2022-11-20T14:26:37;14.10;;;9.35;;
52412;SDS011;38339;53.234;6.578;2022-11-20T14:29:12;10.82;;;9.05;;
52412;SDS011;38339;53.234;6.578;2022-11-20T14:31:39;10.60;;;8.80;;
52412;SDS011;38339;53.234;6.578;2022-11-20T14:34:11;13.00;;;9.05;;
52412;SDS011;38339;53.234;6.578;2022-11-20T14:36:43;12.45;;;8.77;;
52412;SDS011;38339;53.234;6.578;2022-11-20T14:39:22;12.23;;;9.18;;
52412;SDS011;38339;53.234;6.578;2022-11-20T14:41:54;12.05;;;8.65;;
52412;SDS011;38339;53.234;6.578;2022-11-20T14:44:21;12.35;;;8.77;;
52412;SDS011;38339;53.234;6.578;2022-11-20T14:46:58;11.63;;;8.70;;
52412;SDS011;38339;53.234;6.578;2022-11-20T14:49:26;11.50;;;8.82;;
52412;SDS011;38339;53.234;6.578;2022-11-20T14:52:15;11.05;;;8.75;;
52412;SDS011;38339;53.234;6.578;2022-11-20T14:54:46;12.93;;;9.10;;
52412;SDS011;38339;53.234;6.578;2022-11-20T14:57:35;11.70;;;8.52;;
52412;SDS011;38339;53.234;6.578;2022-11-20T15:02:30;13.38;;;9.52;;
52412;SDS011;38339;53.234;6.578;2022-11-20T15:04:57;13.15;;;9.60;;
52412;SDS011;38339;53.234;6.578;2022-11-20T15:07:28;13.25;;;10.70;;
52412;SDS011;38339;53.234;6.578;2022-11-20T15:10:04;14.35;;;10.52;;
52412;SDS011;38339;53.234;6.578;2022-11-20T15:12:35;14.13;;;10.43;;
52412;SDS011;38339;53.234;6.578;2022-11-20T15:15:05;13.38;;;10.57;;
52412;SDS011;38339;53.234;6.578;2022-11-20T15:17:34;13.60;;;9.95;;
52412;SDS011;38339;53.234;6.578;2022-11-20T15:20:02;34.63;;;23.17;;
52412;SDS011;38339;53.234;6.578;2022-11-20T15:22:36;12.30;;;9.68;;
52412;SDS011;38339;53.234;6.578;2022-11-20T15:25:04;13.82;;;10.13;;
52412;SDS011;38339;53.234;6.578;2022-11-20T15:27:36;14.90;;;11.00;;
52412;SDS011;38339;53.234;6.578;2022-11-20T15:30:08;14.57;;;10.75;;
52412;SDS011;38339;53.234;6.578;2022-11-20T15:32:39;16.90;;;11.32;;
52412;SDS011;38339;53.234;6.578;2022-11-20T15:35:05;15.00;;;11.40;;
52412;SDS011;38339;53.234;6.578;2022-11-20T15:37:31;15.18;;;11.85;;
52412;SDS011;38339;53.234;6.578;2022-11-20T15:39:57;15.98;;;11.68;;
52412;SDS011;38339;53.234;6.578;2022-11-20T15:42:22;20.02;;;13.15;;
52412;SDS011;38339;53.234;6.578;2022-11-20T15:44:48;16.75;;;12.50;;
52412;SDS011;38339;53.234;6.578;2022-11-20T15:47:14;18.42;;;12.80;;
52412;SDS011;38339;53.234;6.578;2022-11-20T15:49:39;19.60;;;12.65;;
52412;SDS011;38339;53.234;6.578;2022-11-20T15:52:05;19.48;;;12.90;;
52412;SDS011;38339;53.234;6.578;2022-11-20T15:54:34;17.70;;;12.65;;
52412;SDS011;38339;53.234;6.578;2022-11-20T15:56:59;17.85;;;13.23;;
52412;SDS011;38339;53.234;6.578;2022-11-20T15:59:27;16.65;;;13.10;;
52412;SDS011;38339;53.234;6.578;2022-11-20T16:01:52;19.63;;;12.20;;
52412;SDS011;38339;53.234;6.578;2022-11-20T16:04:18;18.10;;;12.75;;
52412;SDS011;38339;53.234;6.578;2022-11-20T16:06:44;19.15;;;13.35;;
52412;SDS011;38339;53.234;6.578;2022-11-20T16:09:09;21.17;;;12.93;;
52412;SDS011;38339;53.234;6.578;2022-11-20T16:11:35;18.20;;;13.15;;
52412;SDS011;38339;53.234;6.578;2022-11-20T16:14:02;17.10;;;12.95;;
52412;SDS011;38339;53.234;6.578;2022-11-20T16:16:49;19.92;;;13.10;;